Dorr, Michigan
Current Conditions -  °F | °C
As of 3:53 AM on Wednesday 22 Oct 2014 (Local Time) from KGRR Reporting Station
Clear Clear  
Wind Chill: 32°   Ceiling: Unl
Heat Index: 32°   Visibility: 10mi
Dew Point: 29°   Wind: 3mph
Humidity: 88%   Direction: 40°NE
Pressure: 30.29"   Gusts: NA
Location:  42.73°N, 85.72°W
Report Text: KGRR 220753Z AUTO 04003KT 10SM CLR 00/M02 A3029 RMK AO2 SLP265 T00001017
Loading
Personal Weather Stations






























Interactive Weather Map
Tropical Storm Tracking
New forecast layout! Learn more

10-Day Weather Forecast

Advertisements
Track Severe Weather on mobile